Terminal Aerodrome Forecast
Issued by NWS

Home | Current Version | Previous Version | Text Only | Print | Product List | Glossary On
Versions: 1 2 3 4 5 6 7 8 9 10 11 12 13 14 15
099
FTUS43 KIND 222340
TAFLAF
TAF
KLAF 222340Z 2300/2324 VRB03KT P6SM FEW250
     FM230900 00000KT 4SM BR FEW250
      TEMPO 2310/2313 2SM BR
     FM231300 00000KT P6SM FEW040 SCT200
      AMD LTD TO CLD VIS AND WIND 2301/2313=

USA.gov is the U.S. government's official web portal to all federal, state and local government web resources and services.